createdAt,value
2022-12-03T00:00:49.055Z,1.20
2022-12-03T00:02:52.094Z,1.20
2022-12-03T00:04:55.094Z,1.20
2022-12-03T00:06:58.182Z,1.20
2022-12-03T00:09:02.678Z,1.20
2022-12-03T00:11:05.785Z,1.20
2022-12-03T00:13:08.810Z,1.20
2022-12-03T00:15:12.601Z,1.20
2022-12-03T00:17:15.496Z,1.20
2022-12-03T00:19:18.182Z,1.20
2022-12-03T00:21:20.949Z,1.20
2022-12-03T00:23:23.725Z,1.20
2022-12-03T00:25:27.861Z,1.20
2022-12-03T00:27:30.679Z,1.20
2022-12-03T00:29:33.462Z,1.20
2022-12-03T00:31:36.262Z,1.20
2022-12-03T00:33:39.344Z,1.20
2022-12-03T00:35:42.416Z,1.20
2022-12-03T00:37:45.134Z,1.20
2022-12-03T00:39:48.172Z,1.20
2022-12-03T00:41:52.197Z,1.20
2022-12-03T00:43:57.482Z,1.20
2022-12-03T00:46:00.298Z,1.20
2022-12-03T00:48:03.183Z,1.20
2022-12-03T00:50:08.077Z,1.20
2022-12-03T00:52:10.786Z,1.20
2022-12-03T00:54:13.477Z,1.20
2022-12-03T00:56:16.440Z,1.20
2022-12-03T00:58:20.705Z,1.20
2022-12-03T01:00:25.343Z,1.20
2022-12-03T01:02:28.065Z,1.20
2022-12-03T01:04:31.054Z,1.20
2022-12-03T01:06:33.918Z,1.20
2022-12-03T01:08:36.806Z,1.20
2022-12-03T01:10:40.105Z,1.20
2022-12-03T01:12:42.840Z,1.20
2022-12-03T01:14:47.003Z,1.20
2022-12-03T01:16:50.032Z,1.20
2022-12-03T01:18:53.164Z,1.20
2022-12-03T01:20:55.945Z,1.20
2022-12-03T01:22:58.639Z,1.20
2022-12-03T01:25:01.415Z,1.20
2022-12-03T01:27:04.118Z,1.20
2022-12-03T01:29:07.613Z,1.20
2022-12-03T01:31:29.521Z,1.20
2022-12-03T01:33:32.479Z,1.30
2022-12-03T01:35:35.161Z,1.20
2022-12-03T01:37:37.842Z,1.20
2022-12-03T01:39:40.646Z,1.20
2022-12-03T01:41:44.205Z,1.20
2022-12-03T01:43:47.789Z,1.20
2022-12-03T01:45:50.735Z,1.20
2022-12-03T01:47:54.873Z,1.20
2022-12-03T01:50:02.650Z,1.20
2022-12-03T01:52:05.782Z,1.20
2022-12-03T01:54:15.339Z,1.30
2022-12-03T01:56:19.291Z,1.30
2022-12-03T01:58:27.020Z,1.30
2022-12-03T02:00:30.678Z,1.30
2022-12-03T02:02:33.970Z,1.30
2022-12-03T02:04:38.194Z,1.30
2022-12-03T02:06:41.393Z,1.30
2022-12-03T02:08:45.094Z,1.30
2022-12-03T02:10:47.813Z,1.30
2022-12-03T02:12:55.727Z,1.30
2022-12-03T02:14:59.724Z,1.30
2022-12-03T02:17:02.582Z,1.30
2022-12-03T02:19:07.399Z,1.20
2022-12-03T02:21:19.950Z,1.30
2022-12-03T02:23:33.056Z,1.30
2022-12-03T02:25:38.113Z,1.20
2022-12-03T02:27:41.213Z,1.30
2022-12-03T02:29:44.140Z,1.30
2022-12-03T02:31:47.315Z,1.20
2022-12-03T02:33:50.577Z,1.20
2022-12-03T02:35:53.453Z,1.20
2022-12-03T02:38:00.092Z,1.20
2022-12-03T02:40:07.897Z,1.20
2022-12-03T02:42:30.159Z,1.20
2022-12-03T02:44:33.167Z,1.10
2022-12-03T02:46:36.664Z,1.10
2022-12-03T02:48:41.999Z,1.10
2022-12-03T02:50:48.502Z,1.10
2022-12-03T02:52:54.607Z,1.00
2022-12-03T02:54:57.571Z,1.00
2022-12-03T02:57:00.596Z,1.00
2022-12-03T02:59:06.680Z,1.00
2022-12-03T03:01:11.205Z,1.00
2022-12-03T03:03:14.385Z,1.00
2022-12-03T03:05:19.414Z,1.00
2022-12-03T03:07:22.870Z,1.00
2022-12-03T03:09:26.046Z,1.00
2022-12-03T03:11:28.840Z,1.00
2022-12-03T03:13:33.520Z,1.00
2022-12-03T03:15:38.867Z,0.90
2022-12-03T03:17:43.167Z,1.00
2022-12-03T03:19:46.135Z,0.90
2022-12-03T03:21:49.166Z,1.00
2022-12-03T03:23:51.821Z,1.00
2022-12-03T03:25:59.898Z,1.00
2022-12-03T03:28:02.997Z,1.00
2022-12-03T03:30:07.850Z,1.00
2022-12-03T03:32:11.970Z,1.00
2022-12-03T03:34:15.982Z,1.00
2022-12-03T03:36:19.826Z,0.90
2022-12-03T03:38:24.298Z,0.90
2022-12-03T03:40:27.701Z,1.00
2022-12-03T03:42:30.469Z,1.00
2022-12-03T03:44:34.114Z,0.90
2022-12-03T03:46:38.371Z,0.90
2022-12-03T03:48:43.909Z,0.90
2022-12-03T03:50:47.392Z,0.90
2022-12-03T03:52:50.234Z,1.00
2022-12-03T03:54:53.329Z,1.00
2022-12-03T03:56:56.292Z,1.00
2022-12-03T03:58:59.138Z,1.00
2022-12-03T04:01:02.118Z,1.00
2022-12-03T04:03:05.426Z,1.00
2022-12-03T04:05:16.144Z,1.00
2022-12-03T04:07:19.118Z,0.90
2022-12-03T04:09:21.833Z,1.00
2022-12-03T04:11:42.522Z,0.90
2022-12-03T04:13:45.216Z,0.90
2022-12-03T04:15:47.924Z,0.90
2022-12-03T04:18:11.505Z,0.90
2022-12-03T04:20:15.790Z,0.90
2022-12-03T04:22:35.979Z,0.90
2022-12-03T04:24:38.709Z,0.90
2022-12-03T04:26:58.962Z,0.90
2022-12-03T04:29:00.897Z,0.90
2022-12-03T04:31:24.579Z,0.90
2022-12-03T04:33:44.830Z,0.90
2022-12-03T04:35:48.065Z,0.90
2022-12-03T04:37:50.982Z,0.80
2022-12-03T04:39:53.706Z,0.90
2022-12-03T04:41:55.635Z,0.90
2022-12-03T04:44:30.417Z,0.90
2022-12-03T04:46:33.313Z,0.80
2022-12-03T04:48:35.991Z,0.80
2022-12-03T04:50:38.819Z,0.80
2022-12-03T04:52:42.906Z,0.80
2022-12-03T04:54:45.934Z,0.80
2022-12-03T04:56:48.759Z,0.80
2022-12-03T04:58:51.468Z,0.90
2022-12-03T05:00:54.188Z,0.90
2022-12-03T05:02:57.025Z,0.90
2022-12-03T05:04:59.827Z,0.90
2022-12-03T05:07:02.700Z,0.80
2022-12-03T05:09:06.806Z,0.90
2022-12-03T05:11:09.502Z,0.90
2022-12-03T05:13:12.331Z,0.90
2022-12-03T05:15:15.053Z,0.90
2022-12-03T05:17:17.733Z,0.90
2022-12-03T05:19:20.427Z,0.90
2022-12-03T05:21:22.367Z,0.90
2022-12-03T05:23:25.751Z,0.90
2022-12-03T05:25:29.774Z,0.90
2022-12-03T05:27:32.486Z,0.90
2022-12-03T05:29:35.174Z,0.90
2022-12-03T05:31:37.854Z,0.90
2022-12-03T05:33:44.259Z,0.90
2022-12-03T05:35:47.434Z,0.90
2022-12-03T05:38:05.247Z,0.90
2022-12-03T05:40:09.413Z,0.90
2022-12-03T05:42:30.987Z,0.90
2022-12-03T05:44:33.755Z,0.90
2022-12-03T05:46:36.568Z,0.90
2022-12-03T05:48:39.389Z,0.90
2022-12-03T05:50:44.212Z,0.90
2022-12-03T05:52:47.044Z,0.90
2022-12-03T05:54:49.810Z,0.90
2022-12-03T05:56:52.530Z,0.90
2022-12-03T05:58:56.924Z,1.00
2022-12-03T06:00:59.658Z,1.00
2022-12-03T06:03:02.823Z,1.00
2022-12-03T06:05:06.802Z,0.90
2022-12-03T06:07:13.718Z,0.90
2022-12-03T06:09:17.143Z,0.90
2022-12-03T06:11:19.956Z,0.90
2022-12-03T06:13:22.922Z,0.90
2022-12-03T06:15:26.947Z,1.00
2022-12-03T06:17:29.884Z,0.90
2022-12-03T06:19:32.862Z,1.00
2022-12-03T06:21:35.648Z,0.90
2022-12-03T06:23:44.344Z,1.00
2022-12-03T06:25:47.071Z,1.00
2022-12-03T06:27:49.766Z,1.00
2022-12-03T06:29:52.839Z,1.00
2022-12-03T06:31:56.915Z,1.00
2022-12-03T06:33:59.653Z,1.00
2022-12-03T06:36:02.360Z,0.90
2022-12-03T06:38:05.147Z,0.90
2022-12-03T06:40:09.156Z,1.00
2022-12-03T06:42:11.858Z,0.90
2022-12-03T06:44:14.683Z,0.90
2022-12-03T06:46:17.483Z,0.90
2022-12-03T06:48:21.582Z,0.90
2022-12-03T06:50:24.270Z,0.90
2022-12-03T06:52:26.966Z,0.90
2022-12-03T06:54:29.700Z,0.90
2022-12-03T06:56:37.796Z,0.90
2022-12-03T06:58:40.908Z,1.00
2022-12-03T07:00:43.643Z,1.00
2022-12-03T07:02:46.730Z,1.00
2022-12-03T07:04:51.481Z,1.00
2022-12-03T07:06:54.465Z,1.00
2022-12-03T07:08:57.438Z,1.00
2022-12-03T07:11:00.175Z,1.00
2022-12-03T07:13:02.957Z,1.00
2022-12-03T07:15:06.941Z,1.00
2022-12-03T07:17:09.639Z,1.00
2022-12-03T07:19:12.884Z,1.00
2022-12-03T07:21:17.159Z,1.00
2022-12-03T07:23:20.173Z,1.00
2022-12-03T07:25:23.830Z,1.00
2022-12-03T07:27:26.735Z,1.00
2022-12-03T07:29:30.634Z,1.00
2022-12-03T07:31:33.637Z,1.10
2022-12-03T07:33:36.483Z,1.10
2022-12-03T07:35:39.194Z,1.10
2022-12-03T07:37:43.222Z,1.10
2022-12-03T07:39:45.911Z,1.10
2022-12-03T07:41:48.586Z,1.10
2022-12-03T07:43:51.318Z,1.10
2022-12-03T07:45:54.011Z,1.10
2022-12-03T07:47:56.787Z,1.10
2022-12-03T07:49:59.549Z,1.10
2022-12-03T07:52:02.332Z,1.10
2022-12-03T07:54:07.133Z,1.10
2022-12-03T07:56:10.131Z,1.10
2022-12-03T07:58:13.054Z,1.10
2022-12-03T08:00:17.157Z,1.10
2022-12-03T08:02:21.863Z,1.20
2022-12-03T08:04:25.021Z,1.10
2022-12-03T08:06:27.721Z,1.20
2022-12-03T08:08:30.778Z,1.20
2022-12-03T08:10:34.859Z,1.20
2022-12-03T08:12:42.715Z,1.20
2022-12-03T08:14:45.665Z,1.20
2022-12-03T08:16:49.239Z,1.20
2022-12-03T08:18:55.134Z,1.20
2022-12-03T08:20:58.089Z,1.20
2022-12-03T08:23:01.030Z,1.20
2022-12-03T08:25:06.847Z,1.20
2022-12-03T08:27:17.838Z,1.20
2022-12-03T08:29:21.333Z,1.20
2022-12-03T08:31:32.404Z,1.20
2022-12-03T08:33:37.354Z,1.20
2022-12-03T08:35:43.882Z,1.20
2022-12-03T08:37:46.766Z,1.20
2022-12-03T08:39:51.770Z,1.20
2022-12-03T08:42:15.065Z,1.20
2022-12-03T08:44:27.779Z,1.20
2022-12-03T08:46:31.525Z,1.20
2022-12-03T08:48:36.752Z,1.30
2022-12-03T08:50:41.382Z,1.30
2022-12-03T08:52:44.395Z,1.30
2022-12-03T08:54:52.683Z,1.30
2022-12-03T08:56:56.064Z,1.30
2022-12-03T08:59:00.385Z,1.30
2022-12-03T09:01:29.510Z,1.30
2022-12-03T09:03:33.657Z,1.30
2022-12-03T09:05:37.288Z,1.30
2022-12-03T09:07:40.185Z,1.30
2022-12-03T09:09:43.097Z,1.30
2022-12-03T09:11:46.349Z,1.30
2022-12-03T09:13:49.223Z,1.40
2022-12-03T09:15:51.910Z,1.40
2022-12-03T09:17:56.048Z,1.40
2022-12-03T09:19:58.726Z,1.40
2022-12-03T09:22:01.624Z,1.40
2022-12-03T09:24:04.559Z,1.40
2022-12-03T09:26:07.355Z,1.30
2022-12-03T09:28:10.172Z,1.40
2022-12-03T09:30:13.465Z,1.40
2022-12-03T09:32:18.599Z,1.30
2022-12-03T09:34:23.010Z,1.40
2022-12-03T09:36:25.724Z,1.40
2022-12-03T09:38:28.442Z,1.40
2022-12-03T09:40:31.239Z,1.40
2022-12-03T09:42:34.302Z,1.40
2022-12-03T09:44:37.927Z,1.50
2022-12-03T09:46:42.117Z,1.50
2022-12-03T09:48:44.927Z,1.50
2022-12-03T09:50:49.770Z,1.50
2022-12-03T09:52:55.416Z,1.50
2022-12-03T09:55:01.842Z,1.50
2022-12-03T09:57:05.648Z,1.60
2022-12-03T09:59:14.551Z,1.60
2022-12-03T10:01:18.786Z,1.60
2022-12-03T10:03:29.880Z,1.60
2022-12-03T10:05:33.651Z,1.60
2022-12-03T10:07:38.609Z,1.60
2022-12-03T10:09:41.735Z,1.60
2022-12-03T10:11:44.530Z,1.60
2022-12-03T10:13:48.755Z,1.60
2022-12-03T10:15:52.526Z,1.60
2022-12-03T10:17:56.869Z,1.60
2022-12-03T10:19:59.611Z,1.60
2022-12-03T10:22:02.363Z,1.60
2022-12-03T10:24:28.522Z,1.60
2022-12-03T10:26:40.333Z,1.60
2022-12-03T10:28:46.718Z,1.60
2022-12-03T10:30:55.226Z,1.60
2022-12-03T10:33:02.487Z,1.70
2022-12-03T10:35:11.037Z,1.70
2022-12-03T10:37:16.897Z,1.70
2022-12-03T10:39:20.198Z,1.70
2022-12-03T10:41:26.620Z,1.70
2022-12-03T10:43:29.395Z,1.70
2022-12-03T10:45:32.206Z,1.70
2022-12-03T10:47:35.343Z,1.70
2022-12-03T10:49:38.401Z,1.70
2022-12-03T10:51:41.468Z,1.80
2022-12-03T10:53:44.377Z,1.80
2022-12-03T10:55:48.696Z,1.80
2022-12-03T10:57:53.660Z,1.80
2022-12-03T10:59:56.415Z,1.80
2022-12-03T11:01:59.300Z,1.80
2022-12-03T11:04:05.733Z,1.70
2022-12-03T11:06:15.959Z,1.70
2022-12-03T11:08:21.046Z,1.70
2022-12-03T11:10:24.448Z,1.70
2022-12-03T11:12:28.876Z,1.70
2022-12-03T11:15:06.342Z,1.70
2022-12-03T11:17:09.738Z,1.70
2022-12-03T11:19:17.265Z,1.70
2022-12-03T11:21:20.089Z,1.70
2022-12-03T11:23:56.387Z,1.70
2022-12-03T11:25:59.201Z,1.70
2022-12-03T11:28:37.099Z,1.70
2022-12-03T11:31:01.219Z,1.70
2022-12-03T11:33:04.103Z,1.70
2022-12-03T11:35:13.188Z,1.70
2022-12-03T11:37:26.099Z,1.70
2022-12-03T11:40:02.324Z,1.70
2022-12-03T11:42:30.295Z,1.70
2022-12-03T11:44:33.640Z,1.80
2022-12-03T11:46:43.968Z,1.70
2022-12-03T11:48:47.822Z,1.80
2022-12-03T11:50:53.200Z,1.80
2022-12-03T11:52:59.595Z,1.80
2022-12-03T11:55:05.287Z,1.80
2022-12-03T11:57:27.063Z,1.80
2022-12-03T11:59:29.780Z,1.80
2022-12-03T12:01:38.751Z,1.80
2022-12-03T12:03:47.262Z,1.80
2022-12-03T12:06:01.955Z,1.80
2022-12-03T12:08:05.120Z,1.80
2022-12-03T12:10:08.530Z,1.80
2022-12-03T12:12:30.022Z,1.80
2022-12-03T12:14:32.721Z,1.80
2022-12-03T12:16:51.729Z,1.80
2022-12-03T12:18:56.391Z,1.80
2022-12-03T12:21:33.002Z,1.80
2022-12-03T12:23:36.071Z,1.80
2022-12-03T12:25:41.567Z,1.80
2022-12-03T12:27:45.456Z,1.80
2022-12-03T12:29:53.744Z,1.80
2022-12-03T12:32:03.537Z,1.80
2022-12-03T12:34:13.314Z,1.80
2022-12-03T12:36:19.030Z,1.80
2022-12-03T12:38:24.114Z,1.80
2022-12-03T12:40:28.899Z,1.80
2022-12-03T12:42:34.896Z,1.80
2022-12-03T12:44:37.643Z,1.80
2022-12-03T12:46:47.796Z,1.80
2022-12-03T12:48:53.348Z,1.80
2022-12-03T12:51:07.481Z,1.80
2022-12-03T12:53:13.917Z,1.80
2022-12-03T12:55:17.311Z,1.80
2022-12-03T12:57:23.386Z,1.80
2022-12-03T12:59:26.977Z,1.80
2022-12-03T13:01:32.363Z,1.80
2022-12-03T13:03:38.817Z,1.80
2022-12-03T13:05:43.813Z,1.80
2022-12-03T13:07:48.746Z,1.80
2022-12-03T13:09:55.830Z,1.80
2022-12-03T13:12:00.337Z,1.80
2022-12-03T13:14:06.832Z,1.80
2022-12-03T13:16:14.197Z,1.80
2022-12-03T13:18:29.254Z,1.80
2022-12-03T13:20:32.110Z,1.80
2022-12-03T13:22:34.863Z,1.80
2022-12-03T13:24:41.814Z,1.80
2022-12-03T13:26:44.708Z,1.80
2022-12-03T13:28:47.455Z,1.80
2022-12-03T13:30:50.231Z,1.80
2022-12-03T13:32:53.023Z,1.80
2022-12-03T13:35:01.818Z,1.80
2022-12-03T13:37:14.554Z,1.80
2022-12-03T13:39:22.380Z,1.80
2022-12-03T13:41:44.232Z,1.80
2022-12-03T13:43:47.097Z,1.80
2022-12-03T13:45:51.872Z,1.80
2022-12-03T13:47:58.601Z,1.80
2022-12-03T13:50:04.085Z,1.80
2022-12-03T13:52:12.694Z,1.80
2022-12-03T13:54:20.237Z,1.80
2022-12-03T13:56:29.654Z,1.80
2022-12-03T13:58:32.635Z,1.80
2022-12-03T14:00:35.569Z,1.80
2022-12-03T14:02:38.885Z,1.80
2022-12-03T14:04:42.333Z,1.80
2022-12-03T14:06:46.417Z,1.80
2022-12-03T14:08:49.871Z,1.80
2022-12-03T14:10:58.733Z,1.80
2022-12-03T14:13:05.396Z,1.70
2022-12-03T14:15:10.609Z,1.70
2022-12-03T14:17:13.621Z,1.70
2022-12-03T14:19:16.507Z,1.70
2022-12-03T14:21:19.253Z,1.70
2022-12-03T14:23:22.058Z,1.70
2022-12-03T14:25:24.748Z,1.70
2022-12-03T14:27:27.528Z,1.70
2022-12-03T14:29:31.603Z,1.70
2022-12-03T14:31:34.365Z,1.70
2022-12-03T14:33:37.172Z,1.70
2022-12-03T14:35:39.867Z,1.70
2022-12-03T14:37:42.842Z,1.70
2022-12-03T14:39:45.587Z,1.70
2022-12-03T14:42:04.969Z,1.70
2022-12-03T14:44:07.855Z,1.70
2022-12-03T14:46:12.145Z,1.70
2022-12-03T14:48:18.042Z,1.70
2022-12-03T14:50:20.780Z,1.70
2022-12-03T14:52:23.958Z,1.70
2022-12-03T14:54:28.089Z,1.70
2022-12-03T14:56:31.127Z,1.60
2022-12-03T14:58:34.798Z,1.60
2022-12-03T15:00:37.754Z,1.60
2022-12-03T15:02:42.169Z,1.70
2022-12-03T15:04:44.914Z,1.60
2022-12-03T15:06:47.720Z,1.60
2022-12-03T15:08:50.402Z,1.60
2022-12-03T15:10:53.281Z,1.60
2022-12-03T15:12:55.970Z,1.60
2022-12-03T15:14:59.184Z,1.50
2022-12-03T15:17:02.003Z,1.50
2022-12-03T15:19:06.154Z,1.50
2022-12-03T15:21:09.024Z,1.50
2022-12-03T15:23:14.463Z,1.50
2022-12-03T15:25:24.022Z,1.50
2022-12-03T15:27:26.943Z,1.50
2022-12-03T15:29:30.191Z,1.50
2022-12-03T15:31:33.002Z,1.50
2022-12-03T15:33:36.062Z,1.50
2022-12-03T15:35:42.434Z,1.50
2022-12-03T15:37:45.301Z,1.40
2022-12-03T15:39:48.995Z,1.40
2022-12-03T15:41:51.960Z,1.50
2022-12-03T15:43:54.635Z,1.40
2022-12-03T15:45:57.404Z,1.40
2022-12-03T15:48:00.829Z,1.40
2022-12-03T15:50:03.772Z,1.40
2022-12-03T15:52:07.908Z,1.40
2022-12-03T15:54:12.060Z,1.40
2022-12-03T15:56:15.075Z,1.50
2022-12-03T15:58:17.843Z,1.40
2022-12-03T16:00:23.817Z,1.40
2022-12-03T16:02:33.377Z,1.40
2022-12-03T16:04:39.199Z,1.40
2022-12-03T16:06:42.287Z,1.40
2022-12-03T16:08:46.461Z,1.40
2022-12-03T16:10:49.337Z,1.40
2022-12-03T16:12:52.046Z,1.40
2022-12-03T16:14:54.801Z,1.40
2022-12-03T16:16:58.917Z,1.40
2022-12-03T16:19:01.638Z,1.40
2022-12-03T16:21:04.471Z,1.40
2022-12-03T16:23:08.039Z,1.40
2022-12-03T16:25:12.310Z,1.40
2022-12-03T16:27:15.319Z,1.40
2022-12-03T16:29:18.212Z,1.40
2022-12-03T16:31:21.528Z,1.40
2022-12-03T16:33:27.891Z,1.40
2022-12-03T16:35:31.022Z,1.40
2022-12-03T16:37:33.737Z,1.40
2022-12-03T16:39:36.907Z,1.40
2022-12-03T16:41:41.050Z,1.40
2022-12-03T16:43:46.103Z,1.40
2022-12-03T16:46:20.403Z,1.40
2022-12-03T16:48:23.497Z,1.40
2022-12-03T16:50:29.906Z,1.40
2022-12-03T16:52:33.342Z,1.40
2022-12-03T16:54:36.287Z,1.40
2022-12-03T16:56:39.003Z,1.40
2022-12-03T16:58:43.164Z,1.40
2022-12-03T17:00:45.923Z,1.40
2022-12-03T17:02:48.803Z,1.30
2022-12-03T17:04:51.718Z,1.40
2022-12-03T17:06:54.953Z,1.40
2022-12-03T17:08:57.735Z,1.40
2022-12-03T17:11:00.553Z,1.40
2022-12-03T17:13:10.923Z,1.40
2022-12-03T17:15:15.372Z,1.40
2022-12-03T17:17:18.421Z,1.40
2022-12-03T17:19:21.251Z,1.40
2022-12-03T17:21:24.039Z,1.40
2022-12-03T17:23:26.818Z,1.40
2022-12-03T17:25:29.860Z,1.40
2022-12-03T17:27:32.738Z,1.30
2022-12-03T17:29:35.805Z,1.30
2022-12-03T17:31:42.286Z,1.30
2022-12-03T17:33:45.604Z,1.30
2022-12-03T17:35:48.342Z,1.30
2022-12-03T17:37:51.059Z,1.30
2022-12-03T17:39:54.342Z,1.30
2022-12-03T17:41:57.513Z,1.30
2022-12-03T17:44:01.867Z,1.30
2022-12-03T17:46:07.244Z,1.30
2022-12-03T17:48:11.451Z,1.30
2022-12-03T17:50:14.492Z,1.30
2022-12-03T17:52:17.479Z,1.30
2022-12-03T17:54:20.423Z,1.30
2022-12-03T17:56:23.396Z,1.30
2022-12-03T17:58:26.658Z,1.30
2022-12-03T18:00:29.390Z,1.30
2022-12-03T18:02:32.339Z,1.30
2022-12-03T18:04:36.522Z,1.30
2022-12-03T18:06:39.821Z,1.30
2022-12-03T18:08:43.160Z,1.30
2022-12-03T18:10:45.983Z,1.30
2022-12-03T18:12:49.095Z,1.30
2022-12-03T18:14:51.796Z,1.30
2022-12-03T18:16:54.552Z,1.30
2022-12-03T18:19:03.192Z,1.30
2022-12-03T18:21:10.101Z,1.30
2022-12-03T18:23:13.577Z,1.30
2022-12-03T18:25:17.910Z,1.30
2022-12-03T18:27:21.409Z,1.30
2022-12-03T18:29:25.511Z,1.30
2022-12-03T18:31:28.831Z,1.30
2022-12-03T18:33:31.773Z,1.30
2022-12-03T18:35:34.628Z,1.30
2022-12-03T18:37:38.779Z,1.30
2022-12-03T18:39:43.995Z,1.30
2022-12-03T18:41:46.786Z,1.30
2022-12-03T18:43:49.939Z,1.30
2022-12-03T18:45:52.722Z,1.30
2022-12-03T18:47:55.597Z,1.30
2022-12-03T18:49:58.810Z,1.30
2022-12-03T18:52:01.831Z,1.30
2022-12-03T18:54:12.593Z,1.30
2022-12-03T18:56:16.264Z,1.30
2022-12-03T18:58:19.211Z,1.30
2022-12-03T19:00:22.206Z,1.30
2022-12-03T19:04:48.086Z,1.30
2022-12-03T19:06:51.045Z,1.30
2022-12-03T19:08:54.355Z,1.30
2022-12-03T19:11:00.258Z,1.30
2022-12-03T19:13:03.756Z,1.30
2022-12-03T19:15:09.916Z,1.30
2022-12-03T19:17:12.778Z,1.30
2022-12-03T19:19:15.918Z,1.30
2022-12-03T19:21:18.813Z,1.40
2022-12-03T19:23:24.000Z,1.30
2022-12-03T19:25:27.157Z,1.30
2022-12-03T19:27:32.702Z,1.30
2022-12-03T19:29:35.601Z,1.30
2022-12-03T19:31:38.568Z,1.30
2022-12-03T19:33:42.513Z,1.30
2022-12-03T19:35:45.231Z,1.30
2022-12-03T19:37:48.711Z,1.30
2022-12-03T19:39:54.068Z,1.30
2022-12-03T19:41:57.487Z,1.30
2022-12-03T19:44:06.321Z,1.40
2022-12-03T19:46:13.313Z,1.40
2022-12-03T19:48:16.046Z,1.40
2022-12-03T19:50:22.893Z,1.40
2022-12-03T19:52:26.343Z,1.30
2022-12-03T19:54:29.112Z,1.30
2022-12-03T19:56:32.263Z,1.40
2022-12-03T19:58:36.336Z,1.40
2022-12-03T20:00:40.731Z,1.40
2022-12-03T20:02:43.722Z,1.40
2022-12-03T20:04:46.438Z,1.40
2022-12-03T20:06:49.143Z,1.40
2022-12-03T20:08:55.773Z,1.40
2022-12-03T20:11:12.579Z,1.40
2022-12-03T20:13:15.502Z,1.40
2022-12-03T20:15:18.295Z,1.40
2022-12-03T20:17:22.305Z,1.40
2022-12-03T20:19:25.274Z,1.40
2022-12-03T20:21:29.996Z,1.40
2022-12-03T20:23:33.024Z,1.40
2022-12-03T20:25:37.525Z,1.40
2022-12-03T20:27:40.497Z,1.40
2022-12-03T20:29:43.499Z,1.40
2022-12-03T20:31:46.525Z,1.40
2022-12-03T20:33:53.997Z,1.50
2022-12-03T20:35:58.027Z,1.50
2022-12-03T20:38:00.733Z,1.40
2022-12-03T20:40:04.167Z,1.40
2022-12-03T20:42:07.142Z,1.40
2022-12-03T20:44:10.138Z,1.50
2022-12-03T20:46:15.798Z,1.50
2022-12-03T20:48:18.709Z,1.50
2022-12-03T20:50:22.913Z,1.50
2022-12-03T20:52:25.857Z,1.50
2022-12-03T20:54:28.883Z,1.50
2022-12-03T20:56:33.741Z,1.50
2022-12-03T20:58:37.718Z,1.50
2022-12-03T21:00:40.584Z,1.50
2022-12-03T21:02:43.561Z,1.50
2022-12-03T21:04:46.514Z,1.50
2022-12-03T21:06:50.707Z,1.50
2022-12-03T21:08:54.657Z,1.50
2022-12-03T21:10:57.603Z,1.50
2022-12-03T21:13:00.788Z,1.50
2022-12-03T21:15:03.508Z,1.50
2022-12-03T21:17:09.165Z,1.50
2022-12-03T21:19:12.470Z,1.50
2022-12-03T21:21:16.901Z,1.50
2022-12-03T21:23:21.073Z,1.50
2022-12-03T21:25:23.868Z,1.40
2022-12-03T21:27:26.965Z,1.40
2022-12-03T21:29:29.794Z,1.40
2022-12-03T21:31:32.671Z,1.40
2022-12-03T21:33:48.480Z,1.40
2022-12-03T21:35:51.427Z,1.40
2022-12-03T21:37:54.695Z,1.40
2022-12-03T21:39:58.973Z,1.50
2022-12-03T21:42:34.453Z,1.40
2022-12-03T21:44:24.465Z,1.50
2022-12-03T21:47:10.049Z,1.40
2022-12-03T21:48:50.620Z,1.40
2022-12-03T21:51:00.452Z,1.40
2022-12-03T21:53:03.394Z,1.50
2022-12-03T21:55:08.048Z,1.40
2022-12-03T21:57:10.995Z,1.40
2022-12-03T21:59:13.722Z,1.40
2022-12-03T22:01:19.141Z,1.40
2022-12-03T22:03:22.014Z,1.40
2022-12-03T22:05:24.893Z,1.40
2022-12-03T22:07:27.820Z,1.40
2022-12-03T22:09:31.839Z,1.40
2022-12-03T22:11:35.876Z,1.40
2022-12-03T22:13:39.484Z,1.40
2022-12-03T22:15:42.348Z,1.40
2022-12-03T22:17:45.097Z,1.40
2022-12-03T22:19:47.850Z,1.40
2022-12-03T22:21:50.810Z,1.40
2022-12-03T22:23:53.574Z,1.40
2022-12-03T22:26:00.872Z,1.40
2022-12-03T22:28:05.183Z,1.30
2022-12-03T22:30:08.913Z,1.40
2022-12-03T22:32:11.963Z,1.30
2022-12-03T22:34:14.921Z,1.40
2022-12-03T22:36:21.419Z,1.30
2022-12-03T22:38:25.585Z,1.30
2022-12-03T22:40:28.442Z,1.30
2022-12-03T22:42:31.548Z,1.30
2022-12-03T22:44:35.656Z,1.40
2022-12-03T22:46:38.716Z,1.30
2022-12-03T22:48:42.250Z,1.30
2022-12-03T22:50:45.981Z,1.30
2022-12-03T22:52:48.716Z,1.30
2022-12-03T22:54:51.582Z,1.30
2022-12-03T22:56:54.397Z,1.30
2022-12-03T22:58:57.321Z,1.30
2022-12-03T23:01:03.197Z,1.30
2022-12-03T23:03:06.764Z,1.30
2022-12-03T23:05:10.337Z,1.30
2022-12-03T23:07:15.745Z,1.30
2022-12-03T23:09:18.492Z,1.30
2022-12-03T23:11:21.255Z,1.30
2022-12-03T23:13:24.003Z,1.30
2022-12-03T23:15:26.779Z,1.30
2022-12-03T23:17:31.044Z,1.30
2022-12-03T23:19:34.781Z,1.30
2022-12-03T23:21:37.777Z,1.30
2022-12-03T23:23:40.773Z,1.30
2022-12-03T23:25:44.410Z,1.30
2022-12-03T23:27:48.331Z,1.30
2022-12-03T23:29:51.063Z,1.30
2022-12-03T23:31:53.812Z,1.30
2022-12-03T23:33:59.027Z,1.30
2022-12-03T23:36:05.873Z,1.30
2022-12-03T23:38:08.817Z,1.30
2022-12-03T23:40:13.258Z,1.30
2022-12-03T23:42:16.236Z,1.30
2022-12-03T23:44:18.957Z,1.30
2022-12-03T23:46:23.759Z,1.30
2022-12-03T23:48:26.599Z,1.30
2022-12-03T23:50:31.335Z,1.30
2022-12-03T23:52:36.659Z,1.30
2022-12-03T23:54:39.755Z,1.30
2022-12-03T23:56:42.630Z,1.30
2022-12-03T23:58:46.413Z,1.30
